Time,TemperatureF,DewpointF,PressureIn,WindDirection,WindDirectionDegrees,WindSpeedMPH,WindSpeedGustMPH,Humidity,HourlyPrecipIn,Conditions,Clouds,dailyrainin,SoftwareType,DateUTC
2013-06-02 00:03:00,70.8,69.0,28.98,South,177,1.0,3.0,95,0.01,,,0.00,weatherlink.com 1.10,2013-06-02 04:03:00,
2013-06-02 00:09:00,70.8,69.3,28.98,South,178,1.0,2.0,95,0.00,,,0.00,Wunderground v.1.15,2013-06-02 04:09:00,
2013-06-02 00:14:00,70.9,69.4,28.98,South,177,1.0,2.0,95,0.00,,,0.00,Wunderground v.1.15,2013-06-02 04:14:00,
2013-06-02 00:19:00,70.9,69.4,28.99,South,175,0.0,0.0,95,0.00,,,0.00,Wunderground v.1.15,2013-06-02 04:19:00,
2013-06-02 00:20:00,70.8,69.0,28.98,South,176,0.0,2.0,95,0.01,,,0.00,weatherlink.com 1.10,2013-06-02 04:20:00,
2013-06-02 00:29:00,70.8,69.3,29.00,South,176,0.0,0.0,95,0.00,,,0.00,Wunderground v.1.15,2013-06-02 04:29:00,
2013-06-02 00:34:00,70.7,69.2,29.00,South,178,0.0,3.0,95,0.00,,,0.00,Wunderground v.1.15,2013-06-02 04:34:00,
2013-06-02 00:39:00,70.8,69.3,29.00,South,178,0.0,3.0,95,0.00,,,0.00,Wunderground v.1.15,2013-06-02 04:39:00,
2013-06-02 00:44:00,70.8,69.3,29.00,South,176,1.0,3.0,95,0.00,,,0.00,Wunderground v.1.15,2013-06-02 04:44:00,
2013-06-02 00:49:00,70.8,69.3,29.00,South,176,0.0,3.0,95,0.00,,,0.00,Wunderground v.1.15,2013-06-02 04:49:00,
2013-06-02 00:54:00,70.7,69.2,29.00,South,177,0.0,3.0,95,0.00,,,0.00,Wunderground v.1.15,2013-06-02 04:54:00,
2013-06-02 00:59:00,70.6,69.1,29.00,South,176,0.0,0.0,95,0.00,,,0.00,Wunderground v.1.15,2013-06-02 04:59:00,
2013-06-02 01:09:00,70.5,69.0,29.00,South,176,0.0,0.0,95,0.00,,,0.00,Wunderground v.1.15,2013-06-02 05:09:00,
2013-06-02 01:14:00,70.5,69.3,29.00,South,185,0.0,2.0,96,0.00,,,0.00,Wunderground v.1.15,2013-06-02 05:14:00,
2013-06-02 01:19:00,70.5,69.3,29.00,South,186,1.0,1.0,96,0.00,,,0.00,Wunderground v.1.15,2013-06-02 05:19:00,
2013-06-02 01:24:00,70.5,69.3,29.00,South,185,0.0,1.0,96,0.00,,,0.00,Wunderground v.1.15,2013-06-02 05:24:00,
2013-06-02 01:34:00,70.5,69.3,29.00,South,185,1.0,2.0,96,0.00,,,0.00,Wunderground v.1.15,2013-06-02 05:34:00,
2013-06-02 01:39:00,70.4,69.2,29.00,SE,140,1.0,2.0,96,0.00,,,0.00,Wunderground v.1.15,2013-06-02 05:39:00,
2013-06-02 01:44:00,70.4,69.2,29.01,SSE,157,1.0,2.0,96,0.00,,,0.00,Wunderground v.1.15,2013-06-02 05:44:00,
2013-06-02 01:49:00,70.5,69.3,29.01,SW,217,1.0,1.0,96,0.00,,,0.00,Wunderground v.1.15,2013-06-02 05:49:00,
2013-06-02 01:54:00,70.6,69.4,29.01,North,360,1.0,2.0,96,0.00,,,0.00,Wunderground v.1.15,2013-06-02 05:54:00,
2013-06-02 01:59:00,70.6,69.4,29.01,SW,224,0.0,0.0,96,0.00,,,0.00,Wunderground v.1.15,2013-06-02 05:59:00,
2013-06-02 02:05:00,70.6,70.0,29.00,SW,225,0.0,1.0,96,0.00,,,0.00,weatherlink.com 1.10,2013-06-02 06:05:00,
2013-06-02 02:14:00,70.6,69.4,28.99,SW,224,0.0,0.0,96,0.00,,,0.00,Wunderground v.1.15,2013-06-02 06:14:00,
2013-06-02 02:20:00,70.4,69.0,28.99,SW,225,1.0,2.0,96,0.00,,,0.00,weatherlink.com 1.10,2013-06-02 06:20:00,
2013-06-02 02:29:00,70.4,69.2,28.99,SSW,209,1.0,1.0,96,0.00,,,0.00,Wunderground v.1.15,2013-06-02 06:29:00,
2013-06-02 02:35:00,70.5,69.0,28.98,SSW,211,0.0,3.0,96,0.00,,,0.00,weatherlink.com 1.10,2013-06-02 06:35:00,
2013-06-02 02:44:00,70.5,69.3,28.99,SSW,211,0.0,3.0,96,0.00,,,0.00,Wunderground v.1.15,2013-06-02 06:44:00,
2013-06-02 02:49:00,70.5,69.3,28.99,SSW,210,0.0,3.0,96,0.00,,,0.00,Wunderground v.1.15,2013-06-02 06:49:00,
2013-06-02 02:59:00,70.5,69.3,28.99,SSW,211,1.0,1.0,96,0.00,,,0.00,Wunderground v.1.15,2013-06-02 06:59:00,
2013-06-02 03:05:00,70.5,69.0,28.99,SSW,211,0.0,2.0,96,0.00,,,0.00,weatherlink.com 1.10,2013-06-02 07:05:00,
2013-06-02 03:15:00,70.6,69.4,28.98,SSW,211,0.0,0.0,96,0.00,,,0.00,Wunderground v.1.15,2013-06-02 07:15:00,
2013-06-02 03:20:00,70.5,69.3,28.98,SSW,211,0.0,0.0,96,0.00,,,0.00,Wunderground v.1.15,2013-06-02 07:20:00,
2013-06-02 03:25:00,70.4,69.2,28.98,SSW,210,0.0,0.0,96,0.00,,,0.00,Wunderground v.1.15,2013-06-02 07:25:00,
2013-06-02 03:34:00,70.3,69.0,28.98,SSW,210,0.0,0.0,96,0.00,,,0.00,weatherlink.com 1.10,2013-06-02 07:34:00,
2013-06-02 03:40:00,70.3,69.1,28.98,SSW,211,0.0,4.0,96,0.00,,,0.00,Wunderground v.1.15,2013-06-02 07:40:00,
2013-06-02 03:48:00,70.3,69.0,28.98,SSW,211,0.0,1.0,96,0.00,,,0.00,weatherlink.com 1.10,2013-06-02 07:48:00,
2013-06-02 03:55:00,70.3,69.1,28.98,SSW,211,0.0,4.0,96,0.00,,,0.00,Wunderground v.1.15,2013-06-02 07:55:00,
2013-06-02 04:00:00,70.3,69.1,28.98,SSW,211,0.0,0.0,96,0.00,,,0.00,Wunderground v.1.15,2013-06-02 08:00:00,
2013-06-02 04:10:00,70.4,69.2,28.97,SSW,211,0.0,0.0,96,0.00,,,0.00,Wunderground v.1.15,2013-06-02 08:10:00,
2013-06-02 04:15:00,70.3,69.1,28.97,SSW,211,0.0,0.0,96,0.00,,,0.00,Wunderground v.1.15,2013-06-02 08:15:00,
2013-06-02 04:20:00,70.3,69.1,28.97,SSW,211,0.0,0.0,96,0.00,,,0.00,Wunderground v.1.15,2013-06-02 08:20:00,
2013-06-02 04:25:00,70.2,69.0,28.97,SSW,210,0.0,0.0,96,0.00,,,0.00,Wunderground v.1.15,2013-06-02 08:25:00,
2013-06-02 04:35:00,70.1,68.9,28.97,SSW,211,0.0,1.0,96,0.00,,,0.00,Wunderground v.1.15,2013-06-02 08:35:00,
2013-06-02 04:45:00,70.1,68.9,28.97,SSW,209,0.0,1.0,96,0.00,,,0.00,Wunderground v.1.15,2013-06-02 08:45:00,
2013-06-02 04:50:00,70.1,68.9,28.97,SSW,209,0.0,1.0,96,0.00,,,0.00,Wunderground v.1.15,2013-06-02 08:50:00,
2013-06-02 04:55:00,70.2,69.0,28.97,SSW,210,0.0,1.0,96,0.00,,,0.00,Wunderground v.1.15,2013-06-02 08:55:00,
2013-06-02 05:00:00,70.2,69.0,28.97,SSW,211,0.0,0.0,96,0.00,,,0.00,Wunderground v.1.15,2013-06-02 09:00:00,
2013-06-02 05:10:00,70.2,69.0,28.96,SSW,211,0.0,0.0,96,0.00,,,0.00,Wunderground v.1.15,2013-06-02 09:10:00,
2013-06-02 05:15:00,70.2,69.0,28.96,SSW,211,0.0,0.0,96,0.00,,,0.00,Wunderground v.1.15,2013-06-02 09:15:00,
2013-06-02 05:20:00,70.2,69.0,28.96,SSW,210,0.0,0.0,96,0.00,,,0.00,Wunderground v.1.15,2013-06-02 09:20:00,
2013-06-02 05:25:00,70.2,69.0,28.96,SSW,210,0.0,0.0,96,0.00,,,0.00,Wunderground v.1.15,2013-06-02 09:25:00,
2013-06-02 05:30:00,70.1,68.9,28.96,SSW,210,0.0,0.0,96,0.00,,,0.00,Wunderground v.1.15,2013-06-02 09:30:00,
2013-06-02 05:35:00,70.1,68.9,28.96,SSW,211,0.0,2.0,96,0.00,,,0.00,Wunderground v.1.15,2013-06-02 09:35:00,
2013-06-02 05:45:00,70.1,68.9,28.95,SSW,211,0.0,2.0,96,0.00,,,0.00,Wunderground v.1.15,2013-06-02 09:45:00,
2013-06-02 05:50:00,70.0,68.8,28.95,SSW,211,0.0,2.0,96,0.00,,,0.00,Wunderground v.1.15,2013-06-02 09:50:00,
2013-06-02 05:55:00,70.0,68.8,28.95,SSW,210,0.0,2.0,96,0.00,,,0.00,Wunderground v.1.15,2013-06-02 09:55:00,
2013-06-02 06:00:00,70.0,68.8,28.95,SSW,211,0.0,0.0,96,0.00,,,0.00,Wunderground v.1.15,2013-06-02 10:00:00,
2013-06-02 06:10:00,70.0,68.8,28.95,SSW,210,0.0,0.0,96,0.00,,,0.00,Wunderground v.1.15,2013-06-02 10:10:00,
2013-06-02 06:20:00,70.0,68.8,28.95,SSW,211,0.0,0.0,96,0.00,,,0.00,Wunderground v.1.15,2013-06-02 10:20:00,
2013-06-02 06:25:00,70.1,68.9,28.95,SSW,210,0.0,0.0,96,0.00,,,0.00,Wunderground v.1.15,2013-06-02 10:25:00,
2013-06-02 06:35:00,70.1,68.9,28.95,SSW,210,0.0,2.0,96,0.00,,,0.00,Wunderground v.1.15,2013-06-02 10:35:00,
2013-06-02 06:40:00,70.2,69.0,28.95,SSW,211,0.0,2.0,96,0.00,,,0.00,Wunderground v.1.15,2013-06-02 10:40:00,
2013-06-02 06:50:00,70.3,69.0,28.95,SSW,210,0.0,2.0,96,0.00,,,0.00,weatherlink.com 1.10,2013-06-02 10:50:00,
2013-06-02 06:55:00,70.4,69.2,28.95,SSE,155,1.0,2.0,96,0.00,,,0.00,Wunderground v.1.15,2013-06-02 10:55:00,
2013-06-02 07:00:00,70.5,69.3,28.95,SSW,206,1.0,1.0,96,0.00,,,0.00,Wunderground v.1.15,2013-06-02 11:00:00,
2013-06-02 07:10:00,70.6,69.4,28.95,SE,126,1.0,1.0,96,0.00,,,0.00,Wunderground v.1.15,2013-06-02 11:10:00,
2013-06-02 07:15:00,70.7,69.5,28.95,SW,217,1.0,1.0,96,0.00,,,0.00,Wunderground v.1.15,2013-06-02 11:15:00,
2013-06-02 07:21:00,70.7,69.0,28.95,SW,218,0.0,3.0,95,0.00,,,0.00,weatherlink.com 1.10,2013-06-02 11:21:00,
2013-06-02 07:30:00,71.0,69.5,28.95,SSE,168,2.0,2.0,95,0.00,,,0.00,Wunderground v.1.15,2013-06-02 11:30:00,
2013-06-02 07:35:00,71.1,69.6,28.95,South,176,1.0,2.0,95,0.00,,,0.00,Wunderground v.1.15,2013-06-02 11:35:00,
2013-06-02 07:40:00,71.1,69.6,28.95,South,177,1.0,2.0,95,0.00,,,0.00,Wunderground v.1.15,2013-06-02 11:40:00,
2013-06-02 07:45:00,71.2,69.7,28.95,South,175,1.0,2.0,95,0.00,,,0.00,Wunderground v.1.15,2013-06-02 11:45:00,
2013-06-02 07:51:00,71.2,70.0,28.96,NNW,328,1.0,5.0,95,0.02,,,0.02,weatherlink.com 1.10,2013-06-02 11:51:00,
2013-06-02 08:00:00,71.0,69.5,28.95,SW,216,2.0,2.0,95,0.19,,,0.07,Wunderground v.1.15,2013-06-02 12:00:00,
2013-06-02 08:06:00,70.8,69.0,28.96,SSE,166,1.0,5.0,95,0.08,,,0.08,weatherlink.com 1.10,2013-06-02 12:06:00,
2013-06-02 08:15:00,70.7,69.2,28.96,SSE,159,1.0,2.0,95,0.05,,,0.08,Wunderground v.1.15,2013-06-02 12:15:00,
2013-06-02 08:20:00,70.7,69.5,28.96,South,190,1.0,3.0,96,0.00,,,0.08,Wunderground v.1.15,2013-06-02 12:20:00,
2013-06-02 08:30:00,70.7,69.5,28.95,South,190,2.0,3.0,96,0.00,,,0.08,Wunderground v.1.15,2013-06-02 12:30:00,
2013-06-02 08:35:00,70.7,70.0,28.95,SE,140,1.0,5.0,96,0.08,,,0.08,weatherlink.com 1.10,2013-06-02 12:35:00,
2013-06-02 08:40:00,70.8,69.6,28.95,SSW,209,2.0,6.0,96,0.00,,,0.08,Wunderground v.1.15,2013-06-02 12:40:00,
2013-06-02 08:45:00,70.9,69.7,28.96,SSW,210,3.0,6.0,96,0.00,,,0.08,Wunderground v.1.15,2013-06-02 12:45:00,
2013-06-02 08:50:00,71.0,69.8,28.97,SSW,200,3.0,6.0,96,0.00,,,0.08,Wunderground v.1.15,2013-06-02 12:50:00,
2013-06-02 09:00:00,71.1,69.9,28.97,SSW,194,3.0,3.0,96,0.00,,,0.08,Wunderground v.1.15,2013-06-02 13:00:00,
2013-06-02 09:06:00,71.2,70.0,28.97,SSW,213,6.0,7.0,96,0.00,,,0.08,weatherlink.com 1.10,2013-06-02 13:06:00,
2013-06-02 09:15:00,71.3,70.1,28.96,SE,140,2.0,2.0,96,0.00,,,0.08,Wunderground v.1.15,2013-06-02 13:15:00,
2013-06-02 09:20:00,71.3,70.1,28.96,SSE,163,2.0,2.0,96,0.00,,,0.08,Wunderground v.1.15,2013-06-02 13:20:00,
2013-06-02 09:25:00,71.3,70.1,28.96,SSE,162,2.0,2.0,96,0.00,,,0.08,Wunderground v.1.15,2013-06-02 13:25:00,
2013-06-02 09:30:00,71.3,70.1,28.97,South,191,2.0,2.0,96,0.00,,,0.08,Wunderground v.1.15,2013-06-02 13:30:00,
2013-06-02 09:35:00,71.4,70.2,28.96,SSW,199,2.0,7.0,96,0.00,,,0.08,Wunderground v.1.15,2013-06-02 13:35:00,
2013-06-02 09:40:00,71.4,70.2,28.96,SE,134,1.0,7.0,96,0.00,,,0.08,Wunderground v.1.15,2013-06-02 13:40:00,
2013-06-02 09:45:00,71.4,70.2,28.96,South,182,1.0,7.0,96,0.00,,,0.08,Wunderground v.1.15,2013-06-02 13:45:00,
2013-06-02 09:50:00,71.5,70.3,28.96,South,186,1.0,7.0,96,0.00,,,0.08,Wunderground v.1.15,2013-06-02 13:50:00,
2013-06-02 09:55:00,71.5,70.3,28.96,SSW,192,2.0,7.0,96,0.00,,,0.08,Wunderground v.1.15,2013-06-02 13:55:00,
2013-06-02 10:00:00,71.5,70.3,28.97,SSW,200,3.0,3.0,96,0.00,,,0.08,Wunderground v.1.15,2013-06-02 14:00:00,
2013-06-02 10:06:00,71.5,70.0,28.98,SW,220,2.0,8.0,95,0.02,,,0.10,weatherlink.com 1.10,2013-06-02 14:06:00,
2013-06-02 10:15:00,71.2,69.4,28.97,SW,214,2.0,3.0,94,0.06,,,0.10,Wunderground v.1.15,2013-06-02 14:15:00,
2013-06-02 10:20:00,70.8,68.4,28.97,South,190,2.0,2.0,92,0.04,,,0.10,Wunderground v.1.15,2013-06-02 14:20:00,
2013-06-02 10:25:00,70.5,68.4,28.97,SE,134,2.0,2.0,93,0.53,,,0.11,Wunderground v.1.15,2013-06-02 14:25:00,
2013-06-02 10:30:00,70.4,68.3,28.97,SSW,202,1.0,1.0,93,0.12,,,0.12,Wunderground v.1.15,2013-06-02 14:30:00,
2013-06-02 10:36:00,70.6,69.0,28.97,SSW,202,1.0,3.0,93,0.04,,,0.12,weatherlink.com 1.10,2013-06-02 14:36:00,
2013-06-02 10:45:00,71.0,68.9,28.96,SSW,202,0.0,7.0,93,0.00,,,0.12,Wunderground v.1.15,2013-06-02 14:45:00,
2013-06-02 10:50:00,71.2,69.4,28.96,SSW,202,0.0,7.0,94,0.00,,,0.12,Wunderground v.1.15,2013-06-02 14:50:00,
2013-06-02 10:55:00,71.5,69.7,28.97,SSW,202,0.0,7.0,94,0.00,,,0.12,Wunderground v.1.15,2013-06-02 14:55:00,
2013-06-02 11:00:00,71.9,70.1,28.97,SSW,202,0.0,0.0,94,0.00,,,0.12,Wunderground v.1.15,2013-06-02 15:00:00,
2013-06-02 11:06:00,72.5,71.0,28.97,SSW,200,0.0,2.0,94,0.02,,,0.12,weatherlink.com 1.10,2013-06-02 15:06:00,
2013-06-02 11:15:00,74.0,71.2,28.97,SSW,202,1.0,1.0,91,0.00,,,0.12,Wunderground v.1.15,2013-06-02 15:15:00,
2013-06-02 11:20:00,74.3,70.5,28.97,SSW,210,1.0,1.0,88,0.00,,,0.12,Wunderground v.1.15,2013-06-02 15:20:00,
2013-06-02 11:25:00,74.6,71.1,28.97,SSW,210,1.0,1.0,89,0.00,,,0.12,Wunderground v.1.15,2013-06-02 15:25:00,
2013-06-02 11:30:00,74.7,70.9,28.97,SSW,210,0.0,1.0,88,0.00,,,0.12,Wunderground v.1.15,2013-06-02 15:30:00,
2013-06-02 11:35:00,75.0,70.9,28.97,SSW,210,0.0,2.0,87,0.00,,,0.12,Wunderground v.1.15,2013-06-02 15:35:00,
2013-06-02 11:40:00,75.5,71.7,28.97,WNW,295,1.0,8.0,88,0.00,,,0.12,Wunderground v.1.15,2013-06-02 15:40:00,
2013-06-02 11:45:00,76.0,70.8,28.97,NNW,344,2.0,8.0,84,0.00,,,0.12,Wunderground v.1.15,2013-06-02 15:45:00,
2013-06-02 11:50:00,76.3,70.8,28.97,NW,323,1.0,1.0,83,0.00,,,0.12,Wunderground v.1.15,2013-06-02 15:50:00,
2013-06-02 11:55:00,76.5,70.2,28.97,West,272,1.0,8.0,81,0.00,,,0.12,Wunderground v.1.15,2013-06-02 15:55:00,
2013-06-02 12:00:00,76.5,70.2,28.96,West,270,0.0,1.0,81,0.00,,,0.12,Wunderground v.1.15,2013-06-02 16:00:00,
2013-06-02 12:06:00,76.6,71.0,28.97,WNW,303,0.0,3.0,82,0.00,,,0.12,weatherlink.com 1.10,2013-06-02 16:06:00,
2013-06-02 12:15:00,76.4,70.5,28.96,SSW,196,1.0,2.0,82,0.00,,,0.12,Wunderground v.1.15,2013-06-02 16:15:00,
2013-06-02 12:20:00,76.5,69.9,28.96,SSW,196,1.0,1.0,80,0.00,,,0.12,Wunderground v.1.15,2013-06-02 16:20:00,
2013-06-02 12:30:00,76.7,70.8,28.96,WNW,298,1.0,1.0,82,0.00,,,0.12,Wunderground v.1.15,2013-06-02 16:30:00,
2013-06-02 12:35:00,76.9,69.5,28.96,NW,304,2.0,2.0,78,0.00,,,0.12,Wunderground v.1.15,2013-06-02 16:35:00,
2013-06-02 12:40:00,77.0,70.4,28.96,South,181,2.0,2.0,80,0.00,,,0.12,Wunderground v.1.15,2013-06-02 16:40:00,
2013-06-02 12:45:00,77.3,71.0,28.95,SSW,202,1.0,5.0,81,0.00,,,0.12,Wunderground v.1.15,2013-06-02 16:45:00,
2013-06-02 12:50:00,77.4,70.7,28.95,SSW,202,1.0,5.0,80,0.00,,,0.12,Wunderground v.1.15,2013-06-02 16:50:00,
2013-06-02 12:55:00,77.3,70.3,28.95,SSE,157,1.0,5.0,79,0.00,,,0.12,Wunderground v.1.15,2013-06-02 16:55:00,
2013-06-02 13:00:00,77.3,69.9,28.95,South,175,1.0,1.0,78,0.00,,,0.12,Wunderground v.1.15,2013-06-02 17:00:00,
2013-06-02 13:06:00,77.4,70.0,28.95,WNW,282,2.0,3.0,79,0.00,,,0.12,weatherlink.com 1.10,2013-06-02 17:06:00,
2013-06-02 13:15:00,77.5,70.1,28.96,SSW,194,1.0,2.0,78,0.00,,,0.12,Wunderground v.1.15,2013-06-02 17:15:00,
2013-06-02 13:21:00,77.6,71.0,28.96,SW,230,2.0,3.0,79,0.00,,,0.12,weatherlink.com 1.10,2013-06-02 17:21:00,
2013-06-02 13:30:00,77.6,70.2,28.96,South,189,1.0,1.0,78,0.00,,,0.12,Wunderground v.1.15,2013-06-02 17:30:00,
2013-06-02 13:35:00,77.6,69.8,28.95,South,189,1.0,3.0,77,0.00,,,0.12,Wunderground v.1.15,2013-06-02 17:35:00,
2013-06-02 13:45:00,77.7,70.3,28.96,South,188,0.0,3.0,78,0.00,,,0.12,Wunderground v.1.15,2013-06-02 17:45:00,
2013-06-02 13:50:00,77.9,70.5,28.96,South,189,0.0,3.0,78,0.00,,,0.12,Wunderground v.1.15,2013-06-02 17:50:00,
2013-06-02 14:00:00,78.2,70.0,28.95,WSW,240,1.0,1.0,76,0.00,,,0.12,Wunderground v.1.15,2013-06-02 18:00:00,
2013-06-02 14:06:00,78.4,71.0,28.95,WSW,251,1.0,2.0,77,0.00,,,0.12,weatherlink.com 1.10,2013-06-02 18:06:00,
2013-06-02 14:15:00,78.8,70.6,28.95,North,11,1.0,1.0,76,0.00,,,0.12,Wunderground v.1.15,2013-06-02 18:15:00,
2013-06-02 14:20:00,78.8,71.7,28.95,NNW,336,2.0,3.0,79,0.00,,,0.12,Wunderground v.1.15,2013-06-02 18:20:00,
2013-06-02 14:29:00,78.9,69.9,28.95,SSW,197,2.0,2.0,74,0.00,,,0.12,Wunderground v.1.15,2013-06-02 18:29:00,
2013-06-02 14:34:00,78.9,70.3,28.95,SSW,205,2.0,3.0,75,0.00,,,0.12,Wunderground v.1.15,2013-06-02 18:34:00,
2013-06-02 14:39:00,79.4,70.8,28.95,SSW,204,1.0,3.0,75,0.00,,,0.12,Wunderground v.1.15,2013-06-02 18:39:00,
2013-06-02 14:44:00,79.7,70.7,28.94,SSW,211,1.0,3.0,74,0.00,,,0.12,Wunderground v.1.15,2013-06-02 18:44:00,
2013-06-02 14:49:00,79.7,71.1,28.94,SSW,213,2.0,2.0,75,0.00,,,0.12,Wunderground v.1.15,2013-06-02 18:49:00,
2013-06-02 14:55:00,79.6,71.0,28.94,SSW,212,1.0,3.0,75,0.00,,,0.12,Wunderground v.1.15,2013-06-02 18:55:00,
2013-06-02 15:00:00,79.4,70.0,28.94,SSW,213,1.0,1.0,73,0.00,,,0.12,Wunderground v.1.15,2013-06-02 19:00:00,
2013-06-02 15:07:00,79.2,70.0,28.94,SSW,213,1.0,2.0,73,0.00,,,0.12,weatherlink.com 1.10,2013-06-02 19:07:00,
2013-06-02 15:15:00,79.2,70.6,28.94,SW,232,0.0,0.0,75,0.00,,,0.12,Wunderground v.1.15,2013-06-02 19:15:00,
2013-06-02 15:20:00,79.3,70.3,28.94,WNW,293,0.0,0.0,74,0.00,,,0.12,Wunderground v.1.15,2013-06-02 19:20:00,
2013-06-02 15:25:00,79.5,70.9,28.94,SSE,164,1.0,1.0,75,0.00,,,0.12,Wunderground v.1.15,2013-06-02 19:25:00,
2013-06-02 15:34:00,80.3,70.0,28.93,NW,309,1.0,3.0,71,0.00,,,0.12,Wunderground v.1.15,2013-06-02 19:34:00,
2013-06-02 15:39:00,80.8,70.5,28.93,NW,304,2.0,6.0,71,0.00,,,0.12,Wunderground v.1.15,2013-06-02 19:39:00,
2013-06-02 15:44:00,81.2,69.6,28.93,NW,304,2.0,6.0,68,0.00,,,0.12,Wunderground v.1.15,2013-06-02 19:44:00,
2013-06-02 15:49:00,81.5,70.3,28.93,NW,304,1.0,6.0,69,0.00,,,0.12,Wunderground v.1.15,2013-06-02 19:49:00,
2013-06-02 15:55:00,81.3,68.4,28.93,WSW,253,2.0,6.0,65,0.00,,,0.12,Wunderground v.1.15,2013-06-02 19:55:00,
2013-06-02 16:00:00,80.8,67.9,28.93,SE,135,2.0,2.0,65,0.00,,,0.12,Wunderground v.1.15,2013-06-02 20:00:00,
2013-06-02 16:07:00,80.6,68.0,28.93,NNW,328,0.0,5.0,66,0.00,,,0.12,weatherlink.com 1.10,2013-06-02 20:07:00,
2013-06-02 16:15:00,80.4,68.4,28.93,North,360,1.0,2.0,67,0.00,,,0.12,Wunderground v.1.15,2013-06-02 20:15:00,
2013-06-02 16:20:00,80.4,68.4,28.93,North,360,1.0,1.0,67,0.00,,,0.12,Wunderground v.1.15,2013-06-02 20:20:00,
2013-06-02 16:25:00,80.2,68.7,28.93,SW,227,1.0,1.0,68,0.00,,,0.12,Wunderground v.1.15,2013-06-02 20:25:00,
2013-06-02 16:29:00,80.1,68.6,28.93,SW,228,1.0,2.0,68,0.00,,,0.12,Wunderground v.1.15,2013-06-02 20:29:00,
2013-06-02 16:36:00,79.8,68.0,28.93,WNW,284,0.0,4.0,68,0.00,,,0.12,weatherlink.com 1.10,2013-06-02 20:36:00,
2013-06-02 16:44:00,78.9,70.3,28.93,North,360,1.0,4.0,75,0.00,,,0.13,Wunderground v.1.15,2013-06-02 20:44:00,
2013-06-02 16:50:00,77.8,69.6,28.92,WNW,296,2.0,2.0,76,0.00,,,0.13,Wunderground v.1.15,2013-06-02 20:50:00,
2013-06-02 16:55:00,77.2,69.8,28.92,WNW,296,1.0,4.0,78,0.00,,,0.13,Wunderground v.1.15,2013-06-02 20:55:00,
2013-06-02 17:00:00,76.7,70.8,28.92,North,360,0.0,0.0,82,0.00,,,0.13,Wunderground v.1.15,2013-06-02 21:00:00,
2013-06-02 17:07:00,76.5,71.0,28.92,WNW,295,0.0,2.0,82,0.01,,,0.13,weatherlink.com 1.10,2013-06-02 21:07:00,
2013-06-02 17:15:00,76.4,70.5,28.92,North,360,0.0,0.0,82,0.00,,,0.13,Wunderground v.1.15,2013-06-02 21:15:00,
2013-06-02 17:19:00,76.6,71.7,28.92,WNW,296,0.0,0.0,85,0.00,,,0.13,Wunderground v.1.15,2013-06-02 21:19:00,
2013-06-02 17:24:00,76.6,71.0,28.91,WNW,295,0.0,1.0,83,0.00,,,0.13,Wunderground v.1.15,2013-06-02 21:24:00,
2013-06-02 17:29:00,76.6,70.7,28.91,WNW,296,1.0,1.0,82,0.00,,,0.13,Wunderground v.1.15,2013-06-02 21:29:00,
2013-06-02 17:34:00,76.9,71.0,28.91,WNW,295,1.0,6.0,82,0.00,,,0.13,Wunderground v.1.15,2013-06-02 21:34:00,
2013-06-02 17:40:00,77.1,71.2,28.90,West,270,0.0,6.0,82,0.00,,,0.13,Wunderground v.1.15,2013-06-02 21:40:00,
2013-06-02 17:45:00,77.3,71.0,28.90,West,270,1.0,6.0,81,0.00,,,0.13,Wunderground v.1.15,2013-06-02 21:45:00,
2013-06-02 17:50:00,77.3,71.0,28.90,SW,232,0.0,6.0,81,0.00,,,0.13,Wunderground v.1.15,2013-06-02 21:50:00,
2013-06-02 17:55:00,77.3,71.0,28.90,South,184,1.0,6.0,81,0.00,,,0.13,Wunderground v.1.15,2013-06-02 21:55:00,
2013-06-02 18:00:00,77.4,71.1,28.90,South,183,1.0,1.0,81,0.00,,,0.13,Wunderground v.1.15,2013-06-02 22:00:00,
2013-06-02 18:07:00,77.4,71.0,28.90,SSW,204,0.0,2.0,81,0.00,,,0.13,weatherlink.com 1.10,2013-06-02 22:07:00,
2013-06-02 18:14:00,77.2,70.5,28.90,SSW,205,0.0,0.0,80,0.00,,,0.13,Wunderground v.1.15,2013-06-02 22:14:00,
2013-06-02 18:22:00,77.1,71.0,28.90,SSW,205,1.0,2.0,82,0.00,,,0.13,weatherlink.com 1.10,2013-06-02 22:22:00,
2013-06-02 18:29:00,76.9,71.0,28.90,SSW,205,0.0,0.0,82,0.00,,,0.13,Wunderground v.1.15,2013-06-02 22:29:00,
2013-06-02 18:34:00,76.9,71.0,28.90,SSW,204,0.0,3.0,82,0.00,,,0.13,Wunderground v.1.15,2013-06-02 22:34:00,
2013-06-02 18:45:00,76.8,71.6,28.91,SSW,204,0.0,3.0,84,0.00,,,0.13,Wunderground v.1.15,2013-06-02 22:45:00,
2013-06-02 18:50:00,76.5,70.6,28.91,SSW,204,0.0,3.0,82,0.00,,,0.13,Wunderground v.1.15,2013-06-02 22:50:00,
2013-06-02 18:55:00,76.3,70.4,28.91,SSW,205,0.0,3.0,82,0.00,,,0.13,Wunderground v.1.15,2013-06-02 22:55:00,
2013-06-02 19:00:00,76.1,70.6,28.91,SSW,205,0.0,0.0,83,0.00,,,0.13,Wunderground v.1.15,2013-06-02 23:00:00,
2013-06-02 19:07:00,76.0,71.0,28.91,SSW,204,0.0,1.0,84,0.00,,,0.13,weatherlink.com 1.10,2013-06-02 23:07:00,
2013-06-02 19:14:00,75.6,70.4,28.91,SSW,205,0.0,0.0,84,0.00,,,0.13,Wunderground v.1.15,2013-06-02 23:14:00,
2013-06-02 19:19:00,75.4,70.6,28.91,SSW,205,0.0,0.0,85,0.00,,,0.13,Wunderground v.1.15,2013-06-02 23:19:00,
2013-06-02 19:24:00,75.3,70.8,28.91,SSW,205,0.0,0.0,86,0.00,,,0.13,Wunderground v.1.15,2013-06-02 23:24:00,
2013-06-02 19:34:00,75.2,70.4,28.91,SSW,205,0.0,2.0,85,0.00,,,0.13,Wunderground v.1.15,2013-06-02 23:34:00,
2013-06-02 19:39:00,75.2,70.7,28.91,SSW,205,0.0,2.0,86,0.00,,,0.13,Wunderground v.1.15,2013-06-02 23:39:00,
2013-06-02 19:44:00,75.1,70.6,28.91,SSW,205,0.0,2.0,86,0.00,,,0.13,Wunderground v.1.15,2013-06-02 23:44:00,
2013-06-02 19:49:00,74.9,70.4,28.91,SSW,205,0.0,2.0,86,0.00,,,0.13,Wunderground v.1.15,2013-06-02 23:49:00,
2013-06-02 19:54:00,74.7,70.2,28.91,SSW,204,0.0,2.0,86,0.00,,,0.13,Wunderground v.1.15,2013-06-02 23:54:00,
2013-06-02 20:00:00,74.5,70.0,28.92,SSW,205,0.0,0.0,86,0.00,,,0.13,Wunderground v.1.15,2013-06-03 00:00:00,
2013-06-02 20:07:00,74.1,70.0,28.92,SSW,204,0.0,1.0,86,0.00,,,0.13,weatherlink.com 1.10,2013-06-03 00:07:00,
2013-06-02 20:14:00,73.9,69.4,28.91,SSW,205,0.0,0.0,86,0.00,,,0.13,Wunderground v.1.15,2013-06-03 00:14:00,
2013-06-02 20:22:00,73.6,69.0,28.92,SSW,205,0.0,0.0,86,0.00,,,0.13,weatherlink.com 1.10,2013-06-03 00:22:00,
2013-06-02 20:29:00,73.1,69.0,28.92,SSW,205,0.0,0.0,87,0.00,,,0.13,Wunderground v.1.15,2013-06-03 00:29:00,
2013-06-02 20:34:00,72.9,69.1,28.92,SSW,205,0.0,1.0,88,0.00,,,0.13,Wunderground v.1.15,2013-06-03 00:34:00,
2013-06-02 20:40:00,72.7,69.3,28.93,SSW,205,0.0,1.0,89,0.00,,,0.13,Wunderground v.1.15,2013-06-03 00:40:00,
2013-06-02 20:45:00,72.5,69.1,28.93,SSW,205,0.0,1.0,89,0.00,,,0.13,Wunderground v.1.15,2013-06-03 00:45:00,
2013-06-02 20:52:00,72.1,69.0,28.93,SSW,204,0.0,1.0,89,0.00,,,0.13,weatherlink.com 1.10,2013-06-03 00:52:00,
2013-06-02 21:00:00,71.8,68.7,28.93,SSW,205,0.0,0.0,90,0.00,,,0.13,Wunderground v.1.15,2013-06-03 01:00:00,
2013-06-02 21:07:00,71.5,68.0,28.94,NW,319,0.0,3.0,89,0.00,,,0.13,weatherlink.com 1.10,2013-06-03 01:07:00,
2013-06-02 21:14:00,71.8,68.4,28.94,NNW,339,1.0,2.0,89,0.00,,,0.13,Wunderground v.1.15,2013-06-03 01:14:00,
2013-06-02 21:19:00,72.0,68.2,28.94,NNW,344,2.0,2.0,88,0.00,,,0.13,Wunderground v.1.15,2013-06-03 01:19:00,
2013-06-02 21:29:00,72.4,68.6,28.94,NE,38,1.0,1.0,88,0.00,,,0.13,Wunderground v.1.15,2013-06-03 01:29:00,
2013-06-02 21:34:00,72.4,68.6,28.94,NE,38,1.0,1.0,88,0.00,,,0.13,Wunderground v.1.15,2013-06-03 01:34:00,
2013-06-02 21:39:00,72.3,68.9,28.94,NE,37,0.0,1.0,89,0.00,,,0.13,Wunderground v.1.15,2013-06-03 01:39:00,
2013-06-02 21:44:00,72.1,68.7,28.94,NE,38,0.0,1.0,89,0.00,,,0.13,Wunderground v.1.15,2013-06-03 01:44:00,
2013-06-02 21:49:00,72.0,68.6,28.94,NE,38,0.0,1.0,89,0.00,,,0.13,Wunderground v.1.15,2013-06-03 01:49:00,
2013-06-02 22:00:00,71.7,68.6,28.94,NE,38,0.0,0.0,90,0.00,,,0.13,Wunderground v.1.15,2013-06-03 02:00:00,
2013-06-02 22:07:00,71.6,69.0,28.93,NE,38,1.0,2.0,90,0.00,,,0.13,weatherlink.com 1.10,2013-06-03 02:07:00,
2013-06-02 22:14:00,71.3,68.5,28.94,NE,38,1.0,1.0,91,0.00,,,0.13,Wunderground v.1.15,2013-06-03 02:14:00,
2013-06-02 22:19:00,71.1,68.3,28.94,NE,38,0.0,0.0,91,0.00,,,0.13,Wunderground v.1.15,2013-06-03 02:19:00,
2013-06-02 22:24:00,70.9,68.1,28.94,NE,38,0.0,0.0,91,0.00,,,0.13,Wunderground v.1.15,2013-06-03 02:24:00,
2013-06-02 22:29:00,70.6,68.2,28.94,NE,38,0.0,0.0,92,0.00,,,0.13,Wunderground v.1.15,2013-06-03 02:29:00,
2013-06-02 22:34:00,70.4,68.0,28.94,NE,38,0.0,5.0,92,0.00,,,0.13,Wunderground v.1.15,2013-06-03 02:34:00,
2013-06-02 22:39:00,70.3,67.9,28.94,NE,38,0.0,5.0,92,0.00,,,0.13,Wunderground v.1.15,2013-06-03 02:39:00,
2013-06-02 22:44:00,70.1,67.7,28.95,NE,38,0.0,5.0,92,0.00,,,0.13,Wunderground v.1.15,2013-06-03 02:44:00,
2013-06-02 22:49:00,69.9,67.5,28.94,NE,38,0.0,5.0,92,0.00,,,0.13,Wunderground v.1.15,2013-06-03 02:49:00,
2013-06-02 22:54:00,69.8,67.4,28.94,NE,38,0.0,5.0,92,0.00,,,0.13,Wunderground v.1.15,2013-06-03 02:54:00,
2013-06-02 23:00:00,69.6,67.5,28.94,NE,38,0.0,0.0,93,0.00,,,0.13,Wunderground v.1.15,2013-06-03 03:00:00,
2013-06-02 23:07:00,69.4,67.0,28.95,NE,38,0.0,1.0,93,0.00,,,0.13,weatherlink.com 1.10,2013-06-03 03:07:00,
2013-06-02 23:14:00,69.2,67.1,28.95,NE,38,0.0,0.0,93,0.00,,,0.13,Wunderground v.1.15,2013-06-03 03:14:00,
2013-06-02 23:19:00,69.0,66.9,28.95,NE,38,0.0,0.0,93,0.00,,,0.13,Wunderground v.1.15,2013-06-03 03:19:00,
2013-06-02 23:24:00,68.8,66.7,28.95,NE,38,0.0,1.0,93,0.00,,,0.13,Wunderground v.1.15,2013-06-03 03:24:00,
2013-06-02 23:29:00,68.7,66.9,28.94,NE,38,0.0,0.0,94,0.00,,,0.13,Wunderground v.1.15,2013-06-03 03:29:00,
2013-06-02 23:34:00,68.6,66.8,28.94,NE,38,0.0,2.0,94,0.00,,,0.13,Wunderground v.1.15,2013-06-03 03:34:00,
2013-06-02 23:39:00,68.4,66.6,28.94,NE,38,0.0,2.0,94,0.00,,,0.13,Wunderground v.1.15,2013-06-03 03:39:00,
2013-06-02 23:44:00,68.2,66.4,28.94,NE,38,0.0,2.0,94,0.00,,,0.13,Wunderground v.1.15,2013-06-03 03:44:00,
2013-06-02 23:49:00,68.0,66.2,28.94,NE,38,0.0,2.0,94,0.00,,,0.13,Wunderground v.1.15,2013-06-03 03:49:00,
2013-06-02 23:54:00,67.9,66.1,28.94,NE,38,0.0,2.0,94,0.00,,,0.13,Wunderground v.1.15,2013-06-03 03:54:00,